Time;durP1;ratioP1;P1;durP2;ratioP2;P2;SDS_P1;SDS_P2;PMS_P1;PMS_P2;Temp;Humidity;BMP_temperature;BMP_pressure;BME280_temperature;BME280_humidity;BME280_pressure;Samples;Min_cycle;Max_cycle;Signal;HPM_P1;HPM_P2
2021/08/04 00:00:23;;;;;;;19.65;8.75;;;;;;;14.97;73.33;99451.34;5093808;28;20032;-72
2021/08/04 00:02:49;;;;;;;21.10;9.93;;;;;;;14.94;73.43;99451.66;5093446;28;20054;-70
2021/08/04 00:05:15;;;;;;;25.42;9.85;;;;;;;14.96;73.32;99448.84;5075715;28;20119;-73
2021/08/04 00:07:41;;;;;;;25.98;10.27;;;;;;;14.97;73.19;99456.66;5093863;28;20055;-71
2021/08/04 00:10:07;;;;;;;27.92;9.95;;;;;;;14.99;73.03;99449.38;5094105;28;20127;-70
2021/08/04 00:12:33;;;;;;;20.77;9.82;;;;;;;15.03;73.14;99455.22;5093348;28;20751;-71
2021/08/04 00:14:59;;;;;;;20.67;10.05;;;;;;;15.00;73.09;99451.06;5094164;28;20078;-69
2021/08/04 00:17:25;;;;;;;18.23;8.82;;;;;;;14.98;73.37;99453.03;5093724;28;20393;-72
2021/08/04 00:19:50;;;;;;;22.27;9.05;;;;;;;14.98;73.38;99452.19;5093363;28;20048;-70
2021/08/04 00:22:16;;;;;;;23.20;8.95;;;;;;;14.94;73.56;99450.81;5093747;28;20075;-73
2021/08/04 00:24:42;;;;;;;19.70;9.15;;;;;;;14.90;73.69;99452.94;5093382;28;20382;-70
2021/08/04 00:27:08;;;;;;;28.33;12.70;;;;;;;14.92;73.60;99453.63;5093780;28;20117;-70
2021/08/04 00:29:34;;;;;;;20.73;9.50;;;;;;;14.95;73.33;99455.16;5093454;28;20044;-71
2021/08/04 00:32:04;;;;;;;16.95;8.05;;;;;;;14.98;73.36;99452.19;5093003;28;20502;-71
2021/08/04 00:34:30;;;;;;;22.75;8.85;;;;;;;15.01;72.91;99458.03;5093063;28;20076;-71
2021/08/04 00:36:56;;;;;;;22.23;8.05;;;;;;;15.07;72.56;99451.28;5093303;28;20087;-72
2021/08/04 00:39:22;;;;;;;20.63;8.98;;;;;;;15.12;72.66;99453.47;5074871;28;20197;-71
2021/08/04 00:41:48;;;;;;;23.65;8.57;;;;;;;15.11;72.21;99460.63;5093065;28;20040;-70
2021/08/04 00:44:14;;;;;;;24.67;9.60;;;;;;;15.09;72.60;99465.28;5075283;28;20047;-71
2021/08/04 00:46:41;;;;;;;19.95;8.80;;;;;;;15.06;72.46;99454.09;5074814;28;20085;-70
2021/08/04 00:49:09;;;;;;;22.33;9.15;;;;;;;15.01;73.24;99452.69;5075257;28;20100;-71
2021/08/04 00:51:34;;;;;;;25.77;9.33;;;;;;;14.96;73.53;99448.84;5074534;28;20051;-70
2021/08/04 00:54:04;;;;;;;25.23;10.00;;;;;;;14.93;73.78;99457.97;5092475;28;20055;-70
2021/08/04 00:56:31;;;;;;;25.52;9.27;;;;;;;14.91;73.88;99451.94;5074936;28;20055;-72
2021/08/04 00:58:57;;;;;;;20.60;8.98;;;;;;;14.87;73.96;99459.41;5074758;28;20040;-71
2021/08/04 01:01:28;;;;;;;21.40;8.82;;;;;;;14.82;74.06;99463.53;5074667;28;20492;-71
2021/08/04 01:04:15;;;;;;;17.90;8.73;;;;;;;14.79;74.13;99461.16;5092705;28;20091;-69
2021/08/04 01:06:56;;;;;;;20.42;8.75;;;;;;;14.74;74.20;99466.09;5074621;28;20131;-70
2021/08/04 01:09:26;;;;;;;21.20;9.15;;;;;;;14.67;74.15;99469.34;5074315;28;20050;-71
2021/08/04 01:11:59;;;;;;;21.10;9.20;;;;;;;14.66;74.25;99464.19;5057430;28;20062;-72
2021/08/04 01:14:26;;;;;;;17.90;8.48;;;;;;;14.60;74.60;99459.44;5074849;28;20044;-71
2021/08/04 01:16:52;;;;;;;16.83;8.35;;;;;;;14.56;75.03;99475.69;5057982;28;20044;-70
2021/08/04 01:19:36;;;;;;;19.00;11.07;;;;;;;14.47;75.07;99475.75;5074602;28;20043;-70
2021/08/04 01:22:53;;;;;;;22.67;10.02;;;;;;;14.43;75.49;99479.69;5074177;28;20036;-70
2021/08/04 01:25:21;;;;;;;23.55;10.38;;;;;;;14.37;75.55;99481.13;5042160;28;20085;-69
2021/08/04 01:28:16;;;;;;;21.75;9.20;;;;;;;14.31;75.67;99485.22;5074067;28;20485;-71
2021/08/04 01:30:44;;;;;;;21.13;8.30;;;;;;;14.28;75.79;99484.66;5074147;28;20040;-70
2021/08/04 01:33:11;;;;;;;19.60;8.57;;;;;;;14.27;75.85;99486.50;5057727;28;20075;-72
2021/08/04 01:35:37;;;;;;;22.30;11.13;;;;;;;14.27;75.93;99491.81;5092020;28;20046;-70
2021/08/04 01:38:03;;;;;;;21.83;9.23;;;;;;;14.27;75.79;99497.13;5092233;28;20122;-71
2021/08/04 01:40:29;;;;;;;19.08;8.30;;;;;;;14.27;76.11;99494.47;5057524;28;20043;-73
2021/08/04 01:42:55;;;;;;;22.25;10.10;;;;;;;14.28;76.29;99498.81;5057054;28;20125;-71
2021/08/04 01:45:21;;;;;;;23.33;10.05;;;;;;;14.24;76.95;99492.09;5057346;28;20126;-71
2021/08/04 01:47:48;;;;;;;21.90;9.65;;;;;;;14.20;77.31;99496.88;5074154;28;20123;-69
2021/08/04 01:50:14;;;;;;;19.52;8.50;;;;;;;14.18;77.42;99501.50;5091880;28;20485;-70
2021/08/04 01:52:42;;;;;;;17.15;8.93;;;;;;;14.17;77.13;99502.50;5074185;28;20104;-70
2021/08/04 01:55:09;;;;;;;25.10;10.20;;;;;;;14.17;77.37;99502.50;5092061;28;20043;-70
2021/08/04 01:57:38;;;;;;;21.42;10.23;;;;;;;14.16;77.11;99499.97;5073984;28;20492;-70
2021/08/04 02:00:05;;;;;;;18.10;9.02;;;;;;;14.14;77.21;99507.25;5073746;28;20043;-71
2021/08/04 02:02:39;;;;;;;19.05;9.77;;;;;;;14.15;77.16;99503.63;5091785;28;20218;-69
2021/08/04 02:05:07;;;;;;;18.58;8.93;;;;;;;14.16;77.09;99506.13;5073707;28;20443;-70
2021/08/04 02:07:55;;;;;;;21.20;9.45;;;;;;;14.18;77.09;99503.31;5092104;28;20425;-71
2021/08/04 02:10:37;;;;;;;21.88;8.45;;;;;;;14.22;76.68;99510.88;5073767;28;20134;-74
2021/08/04 02:13:21;;;;;;;76.85;33.00;;;;;;;14.28;76.15;99504.13;5091836;28;20144;-71
2021/08/04 02:15:51;;;;;;;18.98;8.02;;;;;;;14.34;76.07;99514.19;5057053;28;20044;-69
2021/08/04 02:18:20;;;;;;;16.75;7.60;;;;;;;14.40;76.03;99508.28;5073776;28;20036;-70
2021/08/04 02:20:47;;;;;;;18.15;7.88;;;;;;;14.40;75.96;99513.59;5093713;28;20432;-71
2021/08/04 02:23:19;;;;;;;22.88;10.05;;;;;;;14.42;75.85;99523.25;5077790;28;20096;-70
2021/08/04 02:25:55;;;;;;;24.08;10.20;;;;;;;14.40;75.82;99518.94;5060966;28;20370;-71
2021/08/04 02:28:23;;;;;;;27.77;10.02;;;;;;;14.37;75.92;99521.03;5060938;28;20052;-71
2021/08/04 02:30:49;;;;;;;;;;;;;;;14.37;75.76;99534.34;5061204;28;20088;-73
2021/08/04 02:33:15;;;;;;;24.85;10.50;;;;;;;14.39;75.74;99529.69;5095409;28;20291;-71
2021/08/04 02:35:41;;;;;;;26.67;11.45;;;;;;;14.40;75.41;99536.69;5060648;28;20055;-72
2021/08/04 02:38:07;;;;;;;23.02;11.10;;;;;;;14.40;75.46;99537.56;5077502;28;20035;-69
2021/08/04 02:40:33;;;;;;;27.60;11.70;;;;;;;14.42;75.29;99531.22;5095491;28;20067;-72
2021/08/04 02:43:00;;;;;;;20.27;10.25;;;;;;;14.43;75.61;99538.22;5077118;28;20043;-70
2021/08/04 02:45:26;;;;;;;22.93;10.37;;;;;;;14.47;75.67;99539.63;5077372;28;20063;-73
2021/08/04 02:47:53;;;;;;;26.05;9.90;;;;;;;14.50;75.76;99542.81;5095125;28;20274;-70
2021/08/04 02:50:20;;;;;;;18.88;8.35;;;;;;;14.51;75.51;99551.66;5077208;28;20488;-71
2021/08/04 02:52:47;;;;;;;22.95;9.55;;;;;;;14.59;75.85;99554.38;5076939;28;20044;-72
2021/08/04 02:55:13;;;;;;;15.07;8.25;;;;;;;14.60;75.27;99548.09;5077047;28;20050;-70
2021/08/04 02:57:39;;;;;;;17.70;8.05;;;;;;;14.65;75.00;99553.00;5094931;28;20378;-70
2021/08/04 03:00:06;;;;;;;18.23;8.73;;;;;;;14.69;74.52;99551.72;5077097;28;20089;-72
2021/08/04 03:02:33;;;;;;;17.63;8.23;;;;;;;14.70;73.98;99551.59;5094849;28;20092;-71
2021/08/04 03:04:59;;;;;;;21.75;8.60;;;;;;;14.75;73.77;99547.63;5076952;28;20446;-73
2021/08/04 03:07:25;;;;;;;17.98;7.97;;;;;;;14.82;73.39;99557.53;5095214;28;20125;-71
2021/08/04 03:09:51;;;;;;;15.77;8.07;;;;;;;14.93;73.39;99556.50;5074924;28;20078;-73
2021/08/04 03:12:17;;;;;;;16.17;8.18;;;;;;;15.13;72.93;99553.72;5057936;28;20056;-72
2021/08/04 03:14:43;;;;;;;24.35;10.50;;;;;;;15.32;73.19;99556.22;5075704;28;20051;-71
2021/08/04 03:17:09;;;;;;;29.23;12.23;;;;;;;15.37;73.98;99561.94;5093703;28;20036;-71
2021/08/04 03:19:35;;;;;;;29.98;11.20;;;;;;;15.49;73.80;99556.41;5076460;28;20473;-72
2021/08/04 03:22:01;;;;;;;29.23;11.45;;;;;;;15.75;73.38;99566.25;5094214;28;20074;-71
2021/08/04 03:24:27;;;;;;;32.28;10.93;;;;;;;16.04;72.58;99562.47;5094578;28;20047;-72
2021/08/04 03:26:52;;;;;;;22.42;10.45;;;;;;;16.39;71.44;99558.88;5093993;28;20043;-72
2021/08/04 03:29:18;;;;;;;24.45;10.55;;;;;;;16.75;70.33;99565.88;5094461;28;20036;-72
2021/08/04 03:31:44;;;;;;;22.95;9.52;;;;;;;17.00;69.60;99563.28;5093700;28;20047;-70
2021/08/04 03:34:10;;;;;;;28.45;11.45;;;;;;;17.33;68.58;99569.56;5094274;28;20044;-73
2021/08/04 03:36:36;;;;;;;30.95;10.65;;;;;;;17.52;67.94;99567.56;5094536;28;20071;-73
2021/08/04 03:39:02;;;;;;;18.73;8.10;;;;;;;17.62;65.49;99573.63;5094217;28;20370;-71
2021/08/04 03:41:28;;;;;;;16.70;7.25;;;;;;;17.69;65.07;99576.44;5094461;28;20063;-73
2021/08/04 03:43:53;;;;;;;17.02;8.38;;;;;;;17.83;64.73;99578.47;5093901;28;20466;-73
2021/08/04 03:46:19;;;;;;;24.10;9.73;;;;;;;17.87;64.33;99587.81;5094163;28;20528;-72
2021/08/04 03:48:45;;;;;;;16.25;8.50;;;;;;;18.20;63.48;99585.13;5093870;28;20036;-74
2021/08/04 03:51:11;;;;;;;18.00;8.00;;;;;;;18.29;62.73;99590.47;5096054;28;20040;-73
2021/08/04 03:53:37;;;;;;;25.23;10.05;;;;;;;18.22;62.51;99593.81;5096840;28;20040;-73
2021/08/04 03:56:03;;;;;;;23.23;9.23;;;;;;;18.24;63.06;99597.19;5093940;28;20127;-71
2021/08/04 03:58:29;;;;;;;15.95;8.13;;;;;;;18.17;62.74;99595.31;5094030;28;20162;-73
2021/08/04 04:00:59;;;;;;;21.88;8.50;;;;;;;18.21;62.82;99602.03;5093311;28;20036;-74
2021/08/04 04:03:24;;;;;;;18.02;8.60;;;;;;;18.28;62.65;99603.03;5093359;28;20415;-72
2021/08/04 04:05:50;;;;;;;21.63;8.52;;;;;;;18.53;62.25;99606.47;5093668;28;20115;-72
2021/08/04 04:08:16;;;;;;;22.23;8.77;;;;;;;18.48;61.97;99603.47;5093836;28;20071;-71
2021/08/04 04:10:42;;;;;;;15.40;8.80;;;;;;;18.78;61.70;99602.88;5093546;28;20032;-74
2021/08/04 04:13:08;;;;;;;15.63;8.27;;;;;;;19.01;60.73;99613.69;5093525;28;20064;-73
2021/08/04 04:15:33;;;;;;;17.02;8.55;;;;;;;19.12;60.36;99621.34;5093439;28;20036;-76
2021/08/04 04:17:59;;;;;;;21.17;8.32;;;;;;;19.26;59.86;99619.75;5092545;28;20040;-75
2021/08/04 04:20:25;;;;;;;20.10;8.13;;;;;;;19.61;59.48;99608.66;5092067;28;20115;-72
2021/08/04 04:22:51;;;;;;;22.20;8.40;;;;;;;20.10;58.18;99616.31;5092564;28;20048;-74
2021/08/04 04:25:17;;;;;;;22.95;8.07;;;;;;;20.55;56.84;99620.91;5092631;28;20043;-76
2021/08/04 04:27:44;;;;;;;16.50;7.80;;;;;;;20.86;55.34;99620.75;5092193;28;20047;-74
2021/08/04 04:30:10;;;;;;;;;;;;;;;21.26;54.58;99626.63;5093575;28;20070;-73
2021/08/04 04:32:36;;;;;;;15.93;8.55;;;;;;;22.35;51.85;99616.66;5092688;28;19916;-73
2021/08/04 04:35:04;;;;;;;22.73;7.75;;;;;;;23.78;48.34;99615.19;5092603;28;20044;-73
2021/08/04 04:37:29;;;;;;;18.50;7.38;;;;;;;25.11;45.45;99607.06;5092747;28;20138;-74
2021/08/04 04:39:55;;;;;;;20.20;7.22;;;;;;;26.22;42.36;99609.47;5093293;28;20126;-74
2021/08/04 04:42:21;;;;;;;22.80;7.68;;;;;;;26.62;41.40;99607.19;5091809;28;20040;-73
2021/08/04 04:44:47;;;;;;;19.05;8.40;;;;;;;27.58;39.93;99609.34;5092819;28;20136;-73
2021/08/04 04:47:13;;;;;;;14.82;8.95;;;;;;;27.68;38.63;99619.66;5093099;28;20169;-72
2021/08/04 04:49:39;;;;;;;14.43;7.30;;;;;;;27.02;39.62;99618.69;5092619;28;20046;-72
2021/08/04 04:52:05;;;;;;;18.42;7.00;;;;;;;26.48;40.16;99616.53;5074619;28;20040;-72
2021/08/04 04:54:31;;;;;;;19.87;7.13;;;;;;;26.05;40.88;99625.47;5092677;28;20046;-73
2021/08/04 04:56:57;;;;;;;18.65;7.00;;;;;;;26.88;39.74;99623.41;5092820;28;20044;-74
2021/08/04 04:59:23;;;;;;;14.27;6.82;;;;;;;27.63;38.50;99615.97;5092785;28;20451;-77
2021/08/04 05:01:48;;;;;;;18.45;7.38;;;;;;;27.20;39.26;99625.97;5093118;28;20048;-74
2021/08/04 05:04:15;;;;;;;17.30;6.70;;;;;;;26.85;39.83;99624.72;5092529;28;20044;-75
2021/08/04 05:06:41;;;;;;;16.90;6.83;;;;;;;27.92;37.33;99628.66;5092464;28;20517;-77
2021/08/04 05:09:06;;;;;;;19.67;6.93;;;;;;;29.51;34.84;99624.25;5092644;28;20312;-74
2021/08/04 05:11:32;;;;;;;17.80;7.18;;;;;;;30.01;33.96;99628.94;5092197;28;20060;-74
2021/08/04 05:13:58;;;;;;;15.85;6.72;;;;;;;31.55;31.42;99617.53;5092551;28;20059;-73
2021/08/04 05:16:24;;;;;;;13.35;6.22;;;;;;;32.90;28.76;99612.75;5092355;28;20100;-74
2021/08/04 05:18:50;;;;;;;12.43;6.15;;;;;;;33.99;27.42;99613.78;5092158;28;20505;-73
2021/08/04 05:21:16;;;;;;;11.97;5.60;;;;;;;35.01;25.90;99621.25;5092583;28;20131;-76
2021/08/04 05:23:42;;;;;;;10.65;3.83;;;;;;;35.25;24.43;99621.38;5092214;28;20040;-74
2021/08/04 05:26:08;;;;;;;11.70;3.50;;;;;;;35.72;22.56;99611.72;5092520;28;20040;-73
2021/08/04 05:28:34;;;;;;;8.53;3.17;;;;;;;34.26;24.39;99618.16;5092227;28;20052;-72
2021/08/04 05:30:59;;;;;;;8.50;4.33;;;;;;;33.09;25.39;99625.97;5092050;28;20104;-76
2021/08/04 05:33:25;;;;;;;6.00;3.07;;;;;;;32.81;26.14;99624.50;5092218;28;20040;-73
2021/08/04 05:35:51;;;;;;;8.27;3.03;;;;;;;32.97;25.76;99626.22;5091949;28;20489;-75
2021/08/04 05:38:17;;;;;;;14.13;3.30;;;;;;;33.58;24.64;99627.47;5091999;28;20074;-76
2021/08/04 05:40:43;;;;;;;8.13;3.90;;;;;;;33.77;24.58;99626.94;5091678;28;20043;-75
2021/08/04 05:43:08;;;;;;;8.87;3.30;;;;;;;34.30;24.37;99624.72;5091932;28;20036;-74
2021/08/04 05:45:36;;;;;;;14.43;6.10;;;;;;;36.09;22.66;99626.84;5091843;28;20040;-75
2021/08/04 05:48:02;;;;;;;7.93;2.42;;;;;;;35.60;21.33;99634.13;5091876;28;20627;-75
2021/08/04 05:50:28;;;;;;;7.93;3.10;;;;;;;36.20;21.41;99635.84;5091453;28;20263;-73
2021/08/04 05:52:54;;;;;;;6.43;2.97;;;;;;;36.98;20.18;99626.72;5091674;28;20105;-74
2021/08/04 05:55:20;;;;;;;4.95;2.85;;;;;;;36.67;20.52;99627.09;5091753;28;20040;-73
2021/08/04 05:57:46;;;;;;;5.37;2.90;;;;;;;35.84;21.54;99622.38;5091930;28;20137;-76
2021/08/04 06:00:12;;;;;;;4.77;2.97;;;;;;;36.43;20.84;99630.66;5092091;28;20285;-76
2021/08/04 06:02:42;;;;;;;6.38;3.08;;;;;;;37.62;20.03;99632.69;5091021;28;20393;-75
2021/08/04 06:05:09;;;;;;;10.75;4.50;;;;;;;37.11;20.60;99639.75;5091562;28;20036;-74
2021/08/04 06:07:35;;;;;;;;;;;;;;;38.01;19.37;99630.69;5092443;28;20040;-75
2021/08/04 06:10:01;;;;;;;12.02;6.18;;;;;;;38.26;19.10;99629.44;5091770;28;19919;-74
2021/08/04 06:12:27;;;;;;;10.52;4.30;;;;;;;38.12;19.21;99632.19;5073415;28;20377;-75
2021/08/04 06:14:53;;;;;;;8.45;4.10;;;;;;;38.81;18.43;99636.97;5091509;28;20040;-79
2021/08/04 06:17:18;;;;;;;9.95;3.70;;;;;;;39.24;18.24;99627.47;5091964;28;20044;-75
2021/08/04 06:19:44;;;;;;;8.77;3.97;;;;;;;38.27;18.67;99638.53;5091461;28;20562;-77
2021/08/04 06:22:10;;;;;;;10.48;3.90;;;;;;;37.98;18.98;99631.31;5073488;28;20139;-76
2021/08/04 06:24:36;;;;;;;7.82;3.72;;;;;;;39.10;18.42;99627.47;5091936;28;20120;-74
2021/08/04 06:27:02;;;;;;;7.53;3.67;;;;;;;38.93;18.46;99638.38;5091960;28;20044;-74
2021/08/04 06:29:28;;;;;;;8.43;3.60;;;;;;;39.48;17.52;99631.91;5091936;28;20101;-76
2021/08/04 06:31:54;;;;;;;7.78;4.00;;;;;;;38.97;17.89;99639.41;5091701;28;20036;-77
2021/08/04 06:34:19;;;;;;;9.25;4.15;;;;;;;37.52;19.43;99632.88;5092123;28;20047;-74
2021/08/04 06:36:45;;;;;;;8.32;4.10;;;;;;;38.24;19.27;99636.38;5091785;28;20040;-76
2021/08/04 06:39:11;;;;;;;8.57;3.90;;;;;;;37.74;19.96;99640.53;5091400;28;20143;-74
2021/08/04 06:41:37;;;;;;;6.75;3.50;;;;;;;37.88;19.06;99643.34;5091614;28;20040;-74
2021/08/04 06:44:03;;;;;;;12.60;4.40;;;;;;;38.83;18.73;99639.41;5091603;28;20472;-80
2021/08/04 06:46:36;;;;;;;7.97;3.72;;;;;;;40.92;17.04;99638.41;5073859;28;20044;-81
2021/08/04 06:49:04;;;;;;;11.98;5.40;;;;;;;40.41;17.31;99640.66;5091172;28;20532;-77
2021/08/04 06:51:30;;;;;;;14.00;4.93;;;;;;;40.82;17.06;99638.72;5091453;28;20040;-77
2021/08/04 06:53:56;;;;;;;8.05;4.38;;;;;;;42.16;15.55;99637.22;5091110;28;20151;-76
2021/08/04 06:56:22;;;;;;;;;;;;;;;40.89;15.99;99644.59;5091681;28;20039;-77
2021/08/04 06:58:48;;;;;;;5.35;3.33;;;;;;;39.32;17.71;99642.53;5091323;28;20379;-75
2021/08/04 07:01:14;;;;;;;5.30;3.50;;;;;;;41.02;16.38;99635.34;5091251;28;20036;-75
2021/08/04 07:03:40;;;;;;;9.65;3.30;;;;;;;41.98;15.02;99639.25;5091423;28;20088;-76
2021/08/04 07:06:09;;;;;;;;;;;;;;;42.40;15.06;99644.19;5092669;28;20036;-75
2021/08/04 07:08:39;;;;;;;8.57;3.10;;;;;;;40.64;16.14;99638.66;5076821;28;19924;-78
2021/08/04 07:11:06;;;;;;;7.82;3.25;;;;;;;40.20;15.90;99634.88;5094898;28;20074;-77
2021/08/04 07:13:33;;;;;;;6.95;3.15;;;;;;;38.68;17.42;99640.50;5095164;28;20048;-78
2021/08/04 07:15:58;;;;;;;7.32;2.55;;;;;;;37.97;17.54;99640.72;5094714;28;20044;-77
2021/08/04 07:18:24;;;;;;;5.90;2.70;;;;;;;39.39;16.70;99633.78;5095141;28;20554;-78
2021/08/04 07:20:50;;;;;;;5.13;2.83;;;;;;;41.12;15.03;99631.44;5094964;28;20097;-83
2021/08/04 07:23:16;;;;;;;5.22;2.90;;;;;;;41.85;14.76;99630.00;5094830;28;20404;-75
2021/08/04 07:25:42;;;;;;;;;;;;;;;41.06;14.68;99639.13;5077130;28;20051;-76
2021/08/04 07:28:09;;;;;;;6.40;2.67;;;;;;;38.34;16.77;99644.50;5094612;28;20445;-77
2021/08/04 07:30:35;;;;;;;5.53;2.13;;;;;;;35.04;19.58;99639.91;5094817;28;20040;-77
2021/08/04 07:33:01;;;;;;;6.97;3.47;;;;;;;36.59;18.07;99634.06;5076384;28;20048;-79
2021/08/04 07:35:27;;;;;;;7.82;3.08;;;;;;;37.30;17.90;99650.00;5094357;28;20040;-79
2021/08/04 07:37:53;;;;;;;6.70;2.70;;;;;;;38.93;16.50;99643.91;5094406;28;20050;-80
2021/08/04 07:40:19;;;;;;;4.40;2.58;;;;;;;41.30;14.29;99637.81;5094513;28;20044;-75
2021/08/04 07:42:47;;;;;;;5.47;2.65;;;;;;;41.60;14.20;99646.34;5076004;28;20105;-76
2021/08/04 07:45:13;;;;;;;5.15;1.90;;;;;;;41.79;13.50;99639.59;5094213;28;20556;-75
2021/08/04 07:47:39;;;;;;;7.32;2.00;;;;;;;38.98;15.73;99646.56;5076281;28;20040;-74
2021/08/04 07:50:05;;;;;;;6.82;2.60;;;;;;;36.32;17.87;99637.38;5094016;28;20127;-78
2021/08/04 07:52:31;;;;;;;7.75;2.25;;;;;;;35.12;19.33;99631.09;5094194;28;20048;-77
2021/08/04 07:54:57;;;;;;;8.05;2.63;;;;;;;36.39;18.39;99633.19;5093916;28;20039;-75
2021/08/04 07:57:23;;;;;;;6.75;2.80;;;;;;;39.55;15.75;99631.47;5094641;28;20040;-81
2021/08/04 07:59:49;;;;;;;6.25;2.58;;;;;;;41.19;14.13;99628.19;5076164;28;20116;-82
2021/08/04 08:02:15;;;;;;;3.88;2.42;;;;;;;39.79;15.10;99637.53;5076016;28;20043;-82
2021/08/04 08:04:41;;;;;;;8.32;2.83;;;;;;;37.58;16.89;99625.34;5075838;28;20040;-80
2021/08/04 08:07:06;;;;;;;9.20;3.58;;;;;;;37.39;17.16;99628.94;5076032;28;20533;-83
2021/08/04 08:09:32;;;;;;;6.07;2.20;;;;;;;37.26;17.12;99627.69;5094301;28;20040;-80
2021/08/04 08:11:59;;;;;;;6.47;2.83;;;;;;;36.02;16.98;99629.09;5075720;28;20044;-80
2021/08/04 08:14:26;;;;;;;6.82;2.88;;;;;;;38.16;16.08;99622.16;5094135;28;20477;-76
2021/08/04 08:16:52;;;;;;;5.57;2.50;;;;;;;39.06;15.54;99626.47;5092958;28;20036;-74
2021/08/04 08:19:18;;;;;;;4.63;2.65;;;;;;;36.64;17.10;99634.00;5093886;28;20079;-77
2021/08/04 08:21:44;;;;;;;8.18;3.38;;;;;;;38.76;16.07;99626.00;5093830;28;20116;-80
2021/08/04 08:24:10;;;;;;;6.32;2.30;;;;;;;36.86;16.53;99636.25;5093545;28;20047;-76
2021/08/04 08:26:36;;;;;;;5.00;2.13;;;;;;;34.82;17.70;99632.84;5093587;28;20040;-78
2021/08/04 08:29:02;;;;;;;;;;;;;;;35.11;18.22;99623.94;5075806;28;20086;-75
2021/08/04 08:31:29;;;;;;;7.75;2.95;;;;;;;35.88;18.09;99626.22;5093152;28;20050;-76
2021/08/04 08:33:59;;;;;;;6.80;2.35;;;;;;;37.34;16.91;99620.75;5093083;28;20028;-78
2021/08/04 08:36:29;;;;;;;5.68;2.15;;;;;;;37.19;16.33;99621.75;5093164;28;20048;-76
2021/08/04 08:38:55;;;;;;;9.95;3.55;;;;;;;35.60;17.79;99623.13;5093353;28;20079;-77
2021/08/04 08:41:21;;;;;;;6.32;3.08;;;;;;;34.33;19.37;99629.69;5093643;28;20052;-80
2021/08/04 08:43:47;;;;;;;7.50;2.90;;;;;;;33.15;20.59;99632.28;5093262;28;20055;-75
2021/08/04 08:46:14;;;;;;;13.23;5.85;;;;;;;32.61;21.57;99633.41;5093411;28;20044;-75
2021/08/04 08:48:43;;;;;;;;;;;;;;;31.93;22.85;99634.88;5094039;28;20094;-77
2021/08/04 08:51:09;;;;;;;12.50;6.10;;;;;;;30.91;24.56;99635.41;5075189;28;19915;-76
2021/08/04 08:53:38;;;;;;;8.27;3.50;;;;;;;31.06;24.97;99637.50;5075647;28;20405;-77
2021/08/04 08:56:07;;;;;;;8.27;3.03;;;;;;;31.13;24.99;99633.53;5075747;28;20071;-77
2021/08/04 08:58:33;;;;;;;11.63;3.20;;;;;;;30.80;25.91;99639.91;5094125;28;20135;-76
2021/08/04 09:00:59;;;;;;;7.20;3.13;;;;;;;30.33;26.45;99652.06;5092827;28;20550;-78
2021/08/04 09:03:25;;;;;;;9.30;4.07;;;;;;;29.59;27.19;99648.38;5092616;28;20055;-80
2021/08/04 09:05:57;;;;;;;14.82;7.03;;;;;;;29.02;27.94;99650.00;5092796;28;20435;-78
2021/08/04 09:08:27;;;;;;;12.10;4.72;;;;;;;28.97;28.65;99657.22;5092888;28;20046;-80
2021/08/04 09:10:54;;;;;;;15.82;5.40;;;;;;;29.19;28.32;99652.75;5092505;28;20044;-78
2021/08/04 09:13:30;;;;;;;10.50;3.35;;;;;;;29.06;28.33;99650.34;5092618;28;20056;-75
2021/08/04 09:16:04;;;;;;;7.82;3.10;;;;;;;28.43;29.57;99647.31;5074580;28;20067;-78
2021/08/04 09:18:47;;;;;;;8.82;4.18;;;;;;;28.69;29.86;99647.94;5092892;28;20044;-82
2021/08/04 09:21:16;;;;;;;5.45;2.58;;;;;;;28.75;29.54;99643.41;5092669;28;20051;-79
2021/08/04 09:23:50;;;;;;;9.43;3.97;;;;;;;28.24;30.51;99641.19;5092810;28;20131;-76
2021/08/04 09:26:20;;;;;;;14.05;5.30;;;;;;;28.37;30.25;99642.81;5092809;28;20040;-77
2021/08/04 09:29:07;;;;;;;6.65;2.50;;;;;;;29.04;29.21;99638.84;5092238;28;20047;-77
2021/08/04 09:31:51;;;;;;;8.45;3.53;;;;;;;29.57;28.14;99639.59;5092120;28;20101;-76
2021/08/04 09:34:40;;;;;;;9.48;3.08;;;;;;;29.92;27.98;99643.22;5092656;28;20044;-76
2021/08/04 09:37:12;;;;;;;9.13;2.65;;;;;;;30.42;27.03;99631.47;5092702;28;20128;-77
2021/08/04 09:39:41;;;;;;;6.32;2.65;;;;;;;30.40;27.36;99628.16;5092310;28;20077;-76
2021/08/04 09:42:08;;;;;;;7.25;2.80;;;;;;;30.13;27.24;99636.19;5092436;28;20047;-77
2021/08/04 09:44:34;;;;;;;8.25;2.63;;;;;;;30.11;27.33;99639.19;5092016;28;20085;-78
2021/08/04 09:47:05;;;;;;;5.10;2.67;;;;;;;29.84;27.37;99628.88;5092404;28;20067;-77
2021/08/04 09:49:31;;;;;;;8.02;2.45;;;;;;;29.63;27.33;99635.06;5092089;28;20054;-77
2021/08/04 09:52:08;;;;;;;5.53;2.95;;;;;;;28.65;28.84;99633.09;5092332;28;20036;-79
2021/08/04 09:54:42;;;;;;;7.75;3.00;;;;;;;28.40;30.09;99624.13;5092291;28;20079;-77
2021/08/04 09:57:09;;;;;;;6.82;2.90;;;;;;;28.35;29.73;99634.06;5074169;28;20400;-78
2021/08/04 09:59:35;;;;;;;9.18;3.42;;;;;;;27.79;30.70;99637.06;5074303;28;20059;-80
2021/08/04 10:02:02;;;;;;;5.82;2.97;;;;;;;27.28;31.30;99631.06;5092196;28;20477;-76
2021/08/04 10:04:28;;;;;;;14.18;5.78;;;;;;;27.17;31.21;99629.97;5092227;28;20040;-76
2021/08/04 10:07:08;;;;;;;12.07;3.10;;;;;;;27.16;31.62;99632.91;5092032;28;20044;-77
2021/08/04 10:09:35;;;;;;;4.82;2.25;;;;;;;27.19;30.68;99627.84;5091977;28;20507;-77
2021/08/04 10:12:01;;;;;;;7.03;2.63;;;;;;;26.95;31.22;99627.75;5092062;28;20109;-75
2021/08/04 10:14:29;;;;;;;9.98;3.10;;;;;;;26.79;31.79;99634.59;5092036;28;20055;-77
2021/08/04 10:16:54;;;;;;;7.40;3.30;;;;;;;27.03;31.39;99623.03;5073808;28;20056;-76
2021/08/04 10:19:22;;;;;;;7.07;3.65;;;;;;;26.79;32.34;99620.19;5092081;28;20040;-79
2021/08/04 10:21:48;;;;;;;;;;;;;;;26.89;32.54;99625.94;5074634;28;20046;-80
2021/08/04 10:24:15;;;;;;;13.73;5.47;;;;;;;26.98;33.41;99625.59;5091723;28;19962;-79
2021/08/04 10:26:41;;;;;;;11.57;4.45;;;;;;;26.79;33.28;99621.03;5092023;28;20055;-75
2021/08/04 10:29:09;;;;;;;13.43;4.90;;;;;;;26.40;34.32;99620.34;5091868;28;20082;-76
2021/08/04 10:31:36;;;;;;;8.52;3.92;;;;;;;25.96;36.87;99633.88;5091839;28;20052;-76
2021/08/04 10:34:04;;;;;;;10.48;4.45;;;;;;;25.65;37.65;99627.41;5073871;28;20036;-76
2021/08/04 10:36:37;;;;;;;11.32;3.50;;;;;;;25.43;37.99;99626.91;5092189;28;20131;-74
2021/08/04 10:39:10;;;;;;;7.28;3.40;;;;;;;24.92;37.92;99631.28;5091501;28;20107;-77
2021/08/04 10:41:37;;;;;;;7.97;2.97;;;;;;;24.59;38.55;99637.63;5093685;28;20048;-77
2021/08/04 10:44:06;;;;;;;13.53;3.93;;;;;;;24.51;38.23;99629.72;5095437;28;20044;-76
2021/08/04 10:46:32;;;;;;;12.88;4.50;;;;;;;24.36;38.30;99628.09;5095660;28;20435;-78
2021/08/04 10:49:03;;;;;;;9.57;4.28;;;;;;;24.46;38.65;99624.97;5077474;28;20052;-76
2021/08/04 10:51:38;;;;;;;9.85;3.22;;;;;;;24.55;38.47;99630.97;5095728;28;20036;-77
2021/08/04 10:54:15;;;;;;;8.32;2.88;;;;;;;24.45;39.04;99628.69;5095256;28;20105;-75
2021/08/04 10:56:41;;;;;;;8.98;3.10;;;;;;;24.51;39.25;99629.72;5095779;28;20113;-76
2021/08/04 10:59:12;;;;;;;10.10;3.03;;;;;;;24.71;39.03;99622.44;5095248;28;20401;-78
2021/08/04 11:01:50;;;;;;;8.63;3.28;;;;;;;25.08;38.22;99623.75;5095222;28;20044;-74
2021/08/04 11:04:45;;;;;;;9.45;3.22;;;;;;;25.48;38.13;99627.13;5095243;28;20089;-75
2021/08/04 11:07:12;;;;;;;9.60;3.33;;;;;;;25.89;36.70;99619.53;5094960;28;20051;-78
2021/08/04 11:09:39;;;;;;;8.43;3.42;;;;;;;26.11;36.38;99617.31;5094965;28;20056;-77
2021/08/04 11:12:16;;;;;;;27.13;10.90;;;;;;;26.21;35.92;99616.78;5076489;28;20055;-79
2021/08/04 11:15:09;;;;;;;12.65;4.20;;;;;;;26.27;35.74;99613.19;5095310;28;20052;-79
2021/08/04 11:18:04;;;;;;;8.10;3.60;;;;;;;26.55;35.03;99622.72;5063258;28;20052;-76
2021/08/04 11:20:31;;;;;;;8.75;3.08;;;;;;;26.34;35.51;99620.44;5095536;28;20047;-76
2021/08/04 11:22:57;;;;;;;8.10;3.80;;;;;;;26.43;35.89;99621.78;5095064;28;20047;-79
2021/08/04 11:25:31;;;;;;;12.88;3.42;;;;;;;26.94;34.88;99615.22;5095024;28;20128;-73
2021/08/04 11:27:58;;;;;;;8.60;3.00;;;;;;;27.34;33.05;99613.03;5094808;28;20401;-75
2021/08/04 11:30:54;;;;;;;8.52;3.00;;;;;;;27.23;32.10;99609.22;5094968;28;20055;-78
2021/08/04 11:33:24;;;;;;;9.90;4.00;;;;;;;27.69;32.08;99609.59;4992924;28;20547;-76